Time;durP1;ratioP1;P1;durP2;ratioP2;P2;SDS_P1;SDS_P2;PMS_P1;PMS_P2;Temp;Humidity;BMP_temperature;BMP_pressure;BME280_temperature;BME280_humidity;BME280_pressure;Samples;Min_cycle;Max_cycle;Signal;HPM_P1;HPM_P2
2021/11/26 00:00:14;;;;;;;46.25;23.10;;;2.80;99.90;;;;;;4937000;29;20401;-76
2021/11/26 06:01:12;;;;;;;47.87;21.90;;;2.80;99.90;;;;;;5619034;23;20805;-76
2021/11/26 06:03:40;;;;;;;51.08;23.80;;;2.90;99.90;;;;;;4992354;28;20380;-78
2021/11/26 06:06:07;;;;;;;52.97;23.92;;;2.90;99.90;;;;;;4992544;28;20046;-77
2021/11/26 06:08:34;;;;;;;47.28;21.80;;;2.90;99.90;;;;;;4992440;28;20126;-77
2021/11/26 06:11:01;;;;;;;50.58;23.05;;;2.90;99.90;;;;;;4992476;28;20129;-76
2021/11/26 06:13:28;;;;;;;50.97;23.33;;;2.90;99.90;;;;;;4992181;28;20475;-76
2021/11/26 06:15:56;;;;;;;49.92;22.55;;;2.90;99.90;;;;;;4992340;28;20134;-78
2021/11/26 06:18:24;;;;;;;51.67;23.23;;;2.90;99.90;;;;;;4992526;28;20149;-76
2021/11/26 06:20:51;;;;;;;53.45;24.30;;;2.90;99.90;;;;;;4992522;28;20125;-76
2021/11/26 06:23:18;;;;;;;54.30;24.45;;;2.90;99.90;;;;;;4992777;28;20139;-76
2021/11/26 06:25:45;;;;;;;55.53;24.30;;;2.90;99.90;;;;;;4993033;28;20129;-78
2021/11/26 06:28:12;;;;;;;53.72;25.50;;;2.90;99.90;;;;;;4992113;28;20141;-76
2021/11/26 06:30:39;;;;;;;49.35;23.73;;;2.90;99.90;;;;;;4991409;28;20049;-77
2021/11/26 06:33:07;;;;;;;57.15;25.58;;;2.90;99.90;;;;;;4991454;28;20074;-77
2021/11/26 06:35:35;;;;;;;53.58;24.58;;;2.80;99.90;;;;;;4992380;28;20603;-76
2021/11/26 06:38:02;;;;;;;56.97;25.70;;;2.80;99.90;;;;;;4992360;28;20092;-76
2021/11/26 06:40:29;;;;;;;51.83;24.10;;;2.80;99.90;;;;;;4992304;28;20057;-76
2021/11/26 06:42:57;;;;;;;54.38;24.50;;;2.70;99.90;;;;;;4992244;28;20137;-77
2021/11/26 06:45:24;;;;;;;56.72;26.38;;;2.70;99.90;;;;;;4992083;28;20105;-78
2021/11/26 06:47:51;;;;;;;58.38;25.88;;;2.70;99.90;;;;;;4994654;28;20050;-76
2021/11/26 06:50:19;;;;;;;54.58;24.52;;;2.60;99.90;;;;;;4995845;28;20145;-77
2021/11/26 06:52:49;;;;;;;56.85;26.08;;;2.60;99.90;;;;;;4995755;28;20066;-76
2021/11/26 06:55:17;;;;;;;61.45;26.98;;;2.50;99.90;;;;;;4995756;28;20073;-78
2021/11/26 06:57:44;;;;;;;60.88;26.63;;;2.50;99.90;;;;;;4995972;28;20133;-77
2021/11/26 07:00:16;;;;;;;63.53;26.48;;;2.50;99.90;;;;;;4996516;28;20141;-77
2021/11/26 07:02:43;;;;;;;61.30;25.73;;;2.40;99.90;;;;;;4996990;28;20481;-76
2021/11/26 07:05:12;;;;;;;59.22;26.67;;;2.40;99.90;;;;;;4996735;28;20108;-76
2021/11/26 07:07:39;;;;;;;64.70;27.55;;;2.40;99.90;;;;;;4996078;28;20097;-77
2021/11/26 07:10:10;;;;;;;64.00;27.15;;;2.40;99.90;;;;;;4995894;28;20137;-76
2021/11/26 07:12:38;;;;;;;65.45;27.67;;;2.30;99.90;;;;;;4996185;28;20085;-76
2021/11/26 07:15:09;;;;;;;67.43;27.30;;;2.30;99.90;;;;;;4995752;28;20563;-76
2021/11/26 07:17:36;;;;;;;63.80;28.10;;;2.30;99.90;;;;;;4995721;28;20149;-77
2021/11/26 07:20:05;;;;;;;63.25;28.15;;;2.30;99.90;;;;;;4995472;28;20137;-77
2021/11/26 07:22:32;;;;;;;63.90;27.67;;;2.20;99.90;;;;;;4995485;28;20153;-76
2021/11/26 07:25:00;;;;;;;58.15;25.05;;;2.20;99.90;;;;;;4995292;28;20145;-75
2021/11/26 07:27:28;;;;;;;59.25;25.05;;;2.20;99.90;;;;;;4995414;28;20249;-77
2021/11/26 07:29:56;;;;;;;56.38;24.63;;;2.30;99.90;;;;;;4994989;28;20141;-76
2021/11/26 07:32:23;;;;;;;60.95;25.20;;;2.20;99.90;;;;;;4995071;28;20054;-76
2021/11/26 07:34:51;;;;;;;61.83;25.52;;;2.30;99.90;;;;;;4994853;28;20141;-75
2021/11/26 07:37:18;;;;;;;65.03;26.38;;;2.40;99.90;;;;;;4995259;28;20105;-75
2021/11/26 07:39:46;;;;;;;66.25;25.30;;;2.40;99.90;;;;;;4995661;28;20454;-76
2021/11/26 07:42:14;;;;;;;64.75;26.13;;;2.50;99.90;;;;;;4997252;28;20496;-76
2021/11/26 07:44:44;;;;;;;60.60;26.13;;;2.50;99.90;;;;;;4994813;28;20065;-76
2021/11/26 07:47:15;;;;;;;64.43;27.67;;;2.50;99.90;;;;;;4994760;28;20518;-75
2021/11/26 07:49:44;;;;;;;63.63;26.60;;;2.60;99.90;;;;;;4994686;28;20072;-75
2021/11/26 07:52:12;;;;;;;65.38;26.60;;;2.60;99.90;;;;;;4994798;28;20054;-76
2021/11/26 07:54:40;;;;;;;65.65;26.15;;;2.60;99.90;;;;;;4994558;28;20105;-77
2021/11/26 07:57:07;;;;;;;66.55;26.27;;;2.60;99.90;;;;;;4994494;28;20137;-75
2021/11/26 07:59:34;;;;;;;62.20;25.63;;;2.60;99.90;;;;;;4993571;28;20487;-76
2021/11/26 08:02:03;;;;;;;66.72;26.70;;;2.60;99.90;;;;;;4994422;28;20053;-76
2021/11/26 08:04:30;;;;;;;64.95;26.30;;;2.60;99.90;;;;;;4994274;28;20078;-75
2021/11/26 08:06:58;;;;;;;67.18;27.58;;;2.60;99.90;;;;;;4994473;28;20064;-76
2021/11/26 08:09:25;;;;;;;67.97;27.85;;;2.70;99.90;;;;;;4994343;28;20047;-77
2021/11/26 08:11:53;;;;;;;68.53;28.30;;;2.70;99.90;;;;;;4994242;28;20057;-77
2021/11/26 08:14:21;;;;;;;67.22;27.55;;;2.70;99.90;;;;;;4994115;28;20093;-76
2021/11/26 08:16:50;;;;;;;66.30;27.30;;;2.70;99.90;;;;;;4994400;28;20053;-75
2021/11/26 08:19:19;;;;;;;65.50;26.77;;;2.70;99.90;;;;;;4994105;28;20082;-75
2021/11/26 08:21:48;;;;;;;67.95;28.20;;;2.70;99.90;;;;;;4993956;28;20047;-75
2021/11/26 08:24:16;;;;;;;71.55;28.27;;;2.80;99.90;;;;;;4994286;28;20129;-77
2021/11/26 08:26:46;;;;;;;69.85;29.67;;;2.80;99.90;;;;;;4994206;28;20085;-76
2021/11/26 08:29:13;;;;;;;70.38;28.48;;;2.80;99.90;;;;;;4993993;28;20137;-77
2021/11/26 08:31:41;;;;;;;72.68;28.30;;;2.80;99.90;;;;;;4993815;28;20483;-75
2021/11/26 08:34:09;;;;;;;72.60;27.90;;;2.70;99.90;;;;;;4993878;28;20050;-75
2021/11/26 08:36:38;;;;;;;76.68;29.48;;;2.70;99.90;;;;;;4993890;28;20050;-76
2021/11/26 08:39:07;;;;;;;70.55;28.60;;;2.70;99.90;;;;;;4993701;28;20141;-75
2021/11/26 08:41:34;;;;;;;75.25;30.08;;;2.70;99.90;;;;;;4993560;28;20058;-77
2021/11/26 08:44:03;;;;;;;73.68;27.13;;;2.70;99.90;;;;;;4993792;28;20080;-76
2021/11/26 08:46:30;;;;;;;74.47;28.67;;;2.70;99.90;;;;;;4993403;28;20051;-78
2021/11/26 08:48:57;;;;;;;72.97;27.70;;;2.70;99.90;;;;;;4993726;28;20042;-76
2021/11/26 08:51:27;;;;;;;69.43;27.98;;;2.70;99.90;;;;;;4993345;28;20137;-75
2021/11/26 08:53:56;;;;;;;70.25;27.77;;;2.70;99.90;;;;;;4993621;28;20416;-78
2021/11/26 08:56:25;;;;;;;73.75;27.75;;;2.70;99.90;;;;;;4993396;28;20062;-75
2021/11/26 08:58:52;;;;;;;77.03;28.50;;;2.60;99.90;;;;;;4993111;28;20042;-79
2021/11/26 09:01:19;;;;;;;78.78;31.45;;;2.60;99.90;;;;;;4993399;28;20054;-77
2021/11/26 09:03:49;;;;;;;72.35;29.10;;;2.50;99.90;;;;;;4993172;28;20046;-77
2021/11/26 09:06:17;;;;;;;76.20;28.88;;;2.40;99.90;;;;;;4993527;28;20050;-75
2021/11/26 09:08:44;;;;;;;70.28;27.52;;;2.40;99.90;;;;;;4993161;28;20488;-75
2021/11/26 09:11:15;;;;;;;67.95;26.40;;;2.40;99.90;;;;;;4992524;28;20050;-76
2021/11/26 09:13:43;;;;;;;71.93;28.23;;;2.40;99.90;;;;;;4992867;28;20050;-75
2021/11/26 09:16:10;;;;;;;69.20;26.73;;;2.40;99.90;;;;;;4993049;28;20049;-74
2021/11/26 09:18:38;;;;;;;70.80;28.67;;;2.50;99.90;;;;;;4993159;28;20049;-76
2021/11/26 09:21:06;;;;;;;68.95;26.38;;;2.60;99.90;;;;;;4992952;28;20046;-76
2021/11/26 09:23:33;;;;;;;69.63;28.17;;;2.60;99.90;;;;;;4993295;28;20137;-76
2021/11/26 09:26:01;;;;;;;68.05;27.63;;;2.60;99.90;;;;;;4993033;28;20046;-77
2021/11/26 09:28:30;;;;;;;68.13;26.00;;;2.60;99.90;;;;;;4993089;28;20560;-75
2021/11/26 09:30:57;;;;;;;69.93;26.85;;;2.70;99.90;;;;;;4993180;28;20054;-76
2021/11/26 09:33:25;;;;;;;63.97;26.35;;;2.70;99.90;;;;;;4992834;28;20046;-76
2021/11/26 09:35:52;;;;;;;66.80;25.10;;;2.80;99.90;;;;;;4992727;28;20566;-77
2021/11/26 09:38:19;;;;;;;61.90;25.27;;;2.80;99.90;;;;;;4992639;28;20411;-76
2021/11/26 09:40:47;;;;;;;59.25;24.38;;;2.90;99.90;;;;;;4992742;28;20050;-77
2021/11/26 09:43:14;;;;;;;62.95;25.38;;;2.90;99.90;;;;;;4992249;28;20086;-75
2021/11/26 09:45:43;;;;;;;59.72;23.88;;;2.90;99.90;;;;;;4992534;28;20050;-78
2021/11/26 09:48:10;;;;;;;61.60;26.27;;;2.90;99.90;;;;;;4972980;28;20078;-76
2021/11/26 09:50:38;;;;;;;59.50;24.00;;;3.00;99.90;;;;;;4973067;28;20141;-76
2021/11/26 09:53:15;;;;;;;55.85;23.65;;;3.00;99.90;;;;;;4973252;28;20141;-76
2021/11/26 09:55:48;;;;;;;57.28;23.58;;;3.10;99.90;;;;;;4973087;28;20138;-77
2021/11/26 09:58:17;;;;;;;55.08;24.00;;;3.10;99.90;;;;;;4972989;28;20134;-77
2021/11/26 10:00:46;;;;;;;54.67;22.77;;;3.10;99.90;;;;;;4980429;28;20062;-76
2021/11/26 10:03:13;;;;;;;54.63;22.85;;;3.20;99.90;;;;;;4992232;28;20046;-77
2021/11/26 10:05:42;;;;;;;57.13;23.48;;;3.20;99.90;;;;;;4992377;28;20074;-75
2021/11/26 10:08:10;;;;;;;53.97;22.90;;;3.30;99.90;;;;;;4992512;28;20062;-76
2021/11/26 10:10:41;;;;;;;54.42;23.95;;;3.30;99.90;;;;;;4992391;28;20125;-76
2021/11/26 10:13:12;;;;;;;50.80;21.83;;;3.40;99.90;;;;;;4992591;28;20137;-76
2021/11/26 10:15:42;;;;;;;55.22;22.98;;;3.40;99.90;;;;;;4992094;28;20141;-76
2021/11/26 10:18:15;;;;;;;53.78;22.45;;;3.50;99.90;;;;;;4992822;28;20049;-76
2021/11/26 10:21:01;;;;;;;53.65;22.50;;;3.40;99.90;;;;;;4991884;28;20105;-76
2021/11/26 10:23:33;;;;;;;50.13;22.65;;;3.40;99.90;;;;;;4995968;28;20104;-77
2021/11/26 10:26:13;;;;;;;48.10;21.05;;;3.40;99.90;;;;;;4995897;28;20121;-76
2021/11/26 10:28:43;;;;;;;51.75;22.63;;;3.40;99.90;;;;;;4996196;28;20457;-83
2021/11/26 10:31:29;;;;;;;52.53;22.85;;;3.40;99.90;;;;;;4995861;28;20125;-76
2021/11/26 10:34:00;;;;;;;51.50;21.83;;;3.40;99.90;;;;;;4995764;28;20052;-80
2021/11/26 10:36:28;;;;;;;46.67;20.60;;;3.50;99.90;;;;;;4995688;28;20048;-78
2021/11/26 10:38:56;;;;;;;49.15;21.50;;;3.50;99.90;;;;;;4996020;28;20085;-78
2021/11/26 10:41:29;;;;;;;46.60;20.67;;;3.50;99.90;;;;;;4995852;28;20050;-77
2021/11/26 10:44:02;;;;;;;51.17;21.75;;;3.50;99.90;;;;;;4995877;28;20065;-78
2021/11/26 10:46:49;;;;;;;50.33;20.70;;;3.50;99.90;;;;;;4995758;28;20137;-79
2021/11/26 10:57:45;;;;;;;49.40;21.50;;;3.60;99.90;;;;;;4995651;28;20112;-78
2021/11/26 11:00:16;;;;;;;46.78;19.83;;;3.70;99.90;;;;;;4995667;28;20595;-78
2021/11/26 11:02:46;;;;;;;43.97;18.77;;;3.70;99.90;;;;;;4995082;28;20137;-80
2021/11/26 11:05:28;;;;;;;42.08;17.23;;;3.70;99.90;;;;;;4995339;28;20147;-78
2021/11/26 11:07:55;;;;;;;40.72;18.48;;;3.70;99.90;;;;;;4995552;28;20070;-77
2021/11/26 11:10:30;;;;;;;40.55;17.50;;;3.80;99.90;;;;;;4995360;28;20093;-78
2021/11/26 11:13:00;;;;;;;40.58;19.58;;;3.80;99.90;;;;;;4995181;28;20057;-80
2021/11/26 11:15:28;;;;;;;41.72;19.50;;;3.80;99.90;;;;;;4997827;28;20438;-79
2021/11/26 11:17:55;;;;;;;43.28;19.35;;;3.80;99.90;;;;;;4994956;28;20133;-77
2021/11/26 11:20:25;;;;;;;38.75;18.02;;;3.80;99.90;;;;;;4995838;28;20047;-78
2021/11/26 11:22:52;;;;;;;40.67;18.95;;;3.80;99.90;;;;;;4994967;28;20042;-77
2021/11/26 11:25:25;;;;;;;39.38;19.17;;;3.80;99.90;;;;;;4995288;28;20133;-78
2021/11/26 11:27:53;;;;;;;43.65;19.55;;;3.80;99.90;;;;;;4995085;28;20046;-78
2021/11/26 11:30:21;;;;;;;39.67;18.67;;;3.80;99.90;;;;;;4994771;28;20136;-79
2021/11/26 11:32:48;;;;;;;40.00;18.48;;;3.70;99.90;;;;;;4994695;28;20189;-79
2021/11/26 11:35:15;;;;;;;40.00;18.35;;;3.70;99.90;;;;;;4994470;28;20084;-78
2021/11/26 11:37:44;;;;;;;41.63;18.05;;;3.70;99.90;;;;;;4994926;28;20137;-78
2021/11/26 11:40:12;;;;;;;42.78;19.83;;;3.70;99.90;;;;;;4994631;28;20150;-79
2021/11/26 11:42:43;;;;;;;39.05;18.42;;;3.70;99.90;;;;;;4994829;28;20129;-79
2021/11/26 11:45:14;;;;;;;39.10;18.75;;;3.70;99.90;;;;;;4995066;28;20050;-79
2021/11/26 11:47:47;;;;;;;41.38;18.50;;;3.80;99.90;;;;;;4994650;28;20479;-80
2021/11/26 11:50:17;;;;;;;42.47;20.17;;;3.70;99.90;;;;;;4994576;28;20472;-79
2021/11/26 11:52:51;;;;;;;39.63;18.75;;;3.70;99.90;;;;;;4994865;28;20499;-79
2021/11/26 11:55:28;;;;;;;42.60;20.10;;;3.70;99.90;;;;;;4994094;28;20491;-77
2021/11/26 11:58:14;;;;;;;37.72;17.88;;;3.60;99.90;;;;;;4994708;28;20054;-79
2021/11/26 12:00:44;;;;;;;42.33;19.30;;;3.60;99.90;;;;;;4994544;28;20049;-79
2021/11/26 12:03:14;;;;;;;41.95;20.50;;;3.60;99.90;;;;;;4994767;28;20057;-79
2021/11/26 12:05:42;;;;;;;40.22;18.20;;;3.60;99.90;;;;;;4994678;28;20490;-79
2021/11/26 12:08:14;;;;;;;40.92;18.17;;;3.60;99.90;;;;;;4994780;28;20050;-76
2021/11/26 12:10:50;;;;;;;39.50;17.58;;;3.70;99.90;;;;;;4975358;28;20130;-77
2021/11/26 12:13:30;;;;;;;37.17;16.52;;;3.70;99.90;;;;;;4975281;28;20476;-78
2021/11/26 12:16:07;;;;;;;35.65;16.60;;;3.70;99.90;;;;;;4989094;28;20053;-77
2021/11/26 12:18:42;;;;;;;40.13;18.05;;;3.80;99.90;;;;;;4996076;28;20526;-77
2021/11/26 12:21:11;;;;;;;38.75;17.98;;;3.80;99.90;;;;;;4994603;28;20129;-77
2021/11/26 12:23:54;;;;;;;38.22;17.38;;;3.80;99.90;;;;;;4994352;28;20057;-79
2021/11/26 12:26:23;;;;;;;35.30;16.73;;;3.80;99.90;;;;;;4993801;28;20050;-78
2021/11/26 12:28:56;;;;;;;35.83;17.70;;;3.90;99.90;;;;;;4993906;28;20117;-80
2021/11/26 12:31:30;;;;;;;32.42;15.52;;;3.90;99.90;;;;;;4993843;28;20648;-81
2021/11/26 12:34:01;;;;;;;32.42;15.55;;;3.90;99.90;;;;;;4993801;28;20093;-80
2021/11/26 12:36:48;;;;;;;33.22;15.82;;;3.90;99.90;;;;;;4993349;28;20479;-78
2021/11/26 12:39:22;;;;;;;45.75;20.70;;;3.90;99.90;;;;;;4993286;28;20050;-80
2021/11/26 12:41:52;;;;;;;33.55;15.93;;;3.90;99.90;;;;;;4993898;28;20068;-78
2021/11/26 12:44:23;;;;;;;34.90;16.48;;;3.90;99.90;;;;;;4993357;28;20141;-79
2021/11/26 12:46:56;;;;;;;33.00;15.35;;;3.90;99.90;;;;;;4993533;28;20153;-78
2021/11/26 12:49:32;;;;;;;29.40;14.95;;;3.90;99.90;;;;;;4993473;28;20496;-79
2021/11/26 12:52:05;;;;;;;28.83;14.32;;;3.90;99.90;;;;;;4993800;28;20050;-76
2021/11/26 12:54:37;;;;;;;31.23;14.48;;;3.90;99.90;;;;;;4993366;28;20046;-78
2021/11/26 12:57:08;;;;;;;30.67;14.23;;;4.00;99.90;;;;;;4993360;28;20078;-79
2021/11/26 12:59:41;;;;;;;30.77;14.75;;;4.00;99.90;;;;;;4993240;28;20138;-80
2021/11/26 13:02:09;;;;;;;28.88;14.77;;;4.00;99.90;;;;;;4994422;28;20086;-78
2021/11/26 13:04:48;;;;;;;31.13;14.32;;;4.00;99.90;;;;;;4994284;28;20057;-77
2021/11/26 13:07:21;;;;;;;31.80;14.70;;;4.00;99.90;;;;;;4994160;28;20061;-78
2021/11/26 13:09:52;;;;;;;32.00;14.57;;;4.00;99.90;;;;;;4996181;28;20060;-78
2021/11/26 13:12:22;;;;;;;28.10;14.00;;;4.00;99.90;;;;;;4996682;28;20113;-78
2021/11/26 13:14:54;;;;;;;33.42;15.60;;;4.00;99.90;;;;;;4995689;28;20081;-79
2021/11/26 13:17:25;;;;;;;29.10;15.15;;;4.00;99.90;;;;;;4994352;28;20056;-77
2021/11/26 13:20:08;;;;;;;35.25;14.35;;;4.00;99.90;;;;;;4993811;28;20048;-77
2021/11/26 13:22:47;;;;;;;29.05;13.73;;;4.00;99.90;;;;;;4993200;28;20781;-76
2021/11/26 13:25:20;;;;;;;26.67;13.18;;;4.00;99.90;;;;;;4992684;28;20470;-79
2021/11/26 13:27:50;;;;;;;28.88;14.30;;;4.00;99.90;;;;;;4992671;28;20050;-78
2021/11/26 13:30:20;;;;;;;28.83;14.23;;;4.00;99.90;;;;;;4992575;28;20089;-79
2021/11/26 13:32:49;;;;;;;25.17;12.90;;;4.00;99.90;;;;;;4992766;28;20056;-78
2021/11/26 13:35:26;;;;;;;27.92;14.18;;;4.00;99.90;;;;;;4992190;28;20531;-78
2021/11/26 13:37:55;;;;;;;25.88;12.18;;;4.00;99.90;;;;;;4992532;28;20050;-78
2021/11/26 13:40:24;;;;;;;29.98;14.50;;;4.00;99.90;;;;;;4992647;28;20050;-77
2021/11/26 13:42:59;;;;;;;28.65;14.63;;;4.10;99.90;;;;;;4992579;28;20136;-78
2021/11/26 13:45:41;;;;;;;27.02;13.35;;;4.10;99.90;;;;;;4991479;28;20177;-79
2021/11/26 13:48:09;;;;;;;30.02;13.95;;;4.10;99.90;;;;;;4992176;28;20445;-80
2021/11/26 13:50:38;;;;;;;27.67;14.05;;;4.10;99.90;;;;;;4991682;28;20057;-77
2021/11/26 13:53:06;;;;;;;25.88;13.13;;;4.10;99.90;;;;;;4992400;28;20137;-79
2021/11/26 13:55:35;;;;;;;25.88;13.43;;;4.10;99.90;;;;;;4992845;28;20054;-81
2021/11/26 13:58:10;;;;;;;26.75;12.82;;;4.20;99.90;;;;;;4991554;28;20126;-80
2021/11/26 14:00:49;;;;;;;25.40;12.20;;;4.20;99.90;;;;;;4992511;28;20101;-80
2021/11/26 14:03:16;;;;;;;20.65;11.07;;;4.20;99.90;;;;;;4992366;28;20061;-79
2021/11/26 14:05:44;;;;;;;21.67;11.13;;;4.20;99.90;;;;;;4992243;28;20133;-80
2021/11/26 14:08:14;;;;;;;21.63;11.05;;;4.20;99.90;;;;;;4992025;28;20047;-79
2021/11/26 14:10:55;;;;;;;21.73;10.60;;;4.30;99.90;;;;;;4992625;28;20082;-80
2021/11/26 14:13:25;;;;;;;19.95;10.88;;;4.30;99.90;;;;;;4988199;28;20096;-79
2021/11/26 14:16:03;;;;;;;20.90;10.63;;;4.30;99.90;;;;;;4989662;28;20054;-82
2021/11/26 14:18:30;;;;;;;20.25;10.70;;;4.30;99.90;;;;;;4988917;28;20137;-78
2021/11/26 14:21:06;;;;;;;19.75;9.93;;;4.40;99.90;;;;;;4989638;28;20145;-78
2021/11/26 14:23:34;;;;;;;18.67;9.88;;;4.40;99.90;;;;;;4989461;28;20137;-74
2021/11/26 14:26:09;;;;;;;21.08;10.43;;;4.40;99.90;;;;;;4989171;28;20094;-78
2021/11/26 14:28:39;;;;;;;19.15;10.02;;;4.40;99.90;;;;;;4988859;28;20058;-77
2021/11/26 14:31:07;;;;;;;18.08;9.57;;;4.40;99.90;;;;;;4989721;28;20078;-77
2021/11/26 14:33:35;;;;;;;17.58;9.18;;;4.40;99.90;;;;;;4989026;28;20488;-76
2021/11/26 14:36:09;;;;;;;18.42;9.43;;;4.40;99.90;;;;;;4989011;28;20145;-75
2021/11/26 14:38:46;;;;;;;17.53;9.40;;;4.40;99.90;;;;;;4988815;28;20050;-76
2021/11/26 14:41:18;;;;;;;17.73;9.55;;;4.30;99.90;;;;;;4989158;28;20054;-76
2021/11/26 14:43:46;;;;;;;17.58;9.43;;;4.30;99.90;;;;;;4988746;28;20498;-78
2021/11/26 14:46:16;;;;;;;17.23;9.10;;;4.30;99.90;;;;;;4988356;28;20133;-76
2021/11/26 14:48:50;;;;;;;15.75;8.73;;;4.30;99.90;;;;;;4989713;28;20050;-77
2021/11/26 14:51:27;;;;;;;18.35;9.40;;;4.30;99.90;;;;;;4990265;28;20085;-76
2021/11/26 14:53:57;;;;;;;17.92;9.30;;;4.30;99.90;;;;;;4987363;28;20053;-77
2021/11/26 14:56:27;;;;;;;15.38;8.95;;;4.30;99.90;;;;;;4988090;28;20527;-77
2021/11/26 14:58:55;;;;;;;20.40;11.30;;;4.20;99.90;;;;;;4989216;28;20055;-76
2021/11/26 15:01:25;;;;;;;17.92;9.93;;;4.30;99.90;;;;;;4987083;28;20042;-78
2021/11/26 15:03:52;;;;;;;15.60;8.82;;;4.30;99.90;;;;;;4988155;28;20046;-77
2021/11/26 15:06:20;;;;;;;14.63;7.90;;;4.30;99.90;;;;;;4987318;28;20462;-77
2021/11/26 15:08:47;;;;;;;16.48;8.68;;;4.30;99.90;;;;;;4991221;28;20496;-76
2021/11/26 15:11:14;;;;;;;14.05;7.65;;;4.20;99.90;;;;;;4992381;28;20480;-78
2021/11/26 15:13:43;;;;;;;14.50;8.00;;;4.20;99.90;;;;;;4992459;28;20141;-76
2021/11/26 15:16:10;;;;;;;14.02;7.38;;;4.20;99.90;;;;;;4991956;28;20389;-77
2021/11/26 15:18:37;;;;;;;14.18;6.88;;;4.20;99.90;;;;;;4992045;28;20141;-77
2021/11/26 15:21:04;;;;;;;13.15;7.30;;;4.30;99.90;;;;;;4992330;28;20057;-76
2021/11/26 15:23:32;;;;;;;14.35;8.35;;;4.30;99.90;;;;;;4991914;28;20050;-76
2021/11/26 15:25:59;;;;;;;24.67;12.55;;;4.30;99.90;;;;;;4991911;28;20094;-75
2021/11/26 15:28:27;;;;;;;18.35;9.63;;;4.30;99.90;;;;;;4991788;28;20133;-75
2021/11/26 15:30:55;;;;;;;21.27;10.50;;;4.30;99.90;;;;;;4991158;28;20511;-75
2021/11/26 15:33:24;;;;;;;14.77;7.72;;;4.30;99.90;;;;;;4991916;28;20046;-76
2021/11/26 15:35:54;;;;;;;14.27;7.88;;;4.20;99.90;;;;;;4991922;28;20128;-75
2021/11/26 15:38:21;;;;;;;13.27;7.60;;;4.20;99.90;;;;;;4991415;28;20914;-75
2021/11/26 15:40:48;;;;;;;12.98;7.10;;;4.20;99.90;;;;;;4991988;28;20137;-75
2021/11/26 15:43:16;;;;;;;13.57;7.70;;;4.30;99.90;;;;;;4991752;28;20133;-75
2021/11/26 15:45:43;;;;;;;13.57;7.63;;;4.20;99.90;;;;;;4991573;28;20141;-75
2021/11/26 15:48:12;;;;;;;14.93;7.63;;;4.20;99.90;;;;;;4991633;28;20137;-76
2021/11/26 15:50:40;;;;;;;12.18;6.72;;;4.30;99.90;;;;;;4992031;28;20047;-75
2021/11/26 15:53:08;;;;;;;13.40;7.50;;;4.30;99.90;;;;;;4991239;28;20197;-78
2021/11/26 15:55:35;;;;;;;13.77;7.88;;;4.30;99.90;;;;;;4991949;28;20054;-76
2021/11/26 15:58:02;;;;;;;14.00;7.45;;;4.30;99.90;;;;;;4990927;28;20048;-77
2021/11/26 16:00:30;;;;;;;15.02;7.68;;;4.30;99.90;;;;;;4990911;28;20134;-76
2021/11/26 16:02:59;;;;;;;13.20;7.55;;;4.30;99.90;;;;;;4991495;28;20061;-78
2021/11/26 16:05:27;;;;;;;12.77;7.60;;;4.30;99.90;;;;;;4991316;28;20847;-76
2021/11/26 16:07:54;;;;;;;14.75;7.93;;;4.30;99.90;;;;;;4991527;28;20080;-76
2021/11/26 16:10:21;;;;;;;15.07;7.90;;;4.30;99.90;;;;;;4990874;28;20046;-75
2021/11/26 16:12:48;;;;;;;14.27;7.55;;;4.30;99.90;;;;;;4990981;28;20169;-77
2021/11/26 16:15:16;;;;;;;13.23;7.47;;;4.20;99.90;;;;;;4991149;28;20153;-75
2021/11/26 16:17:43;;;;;;;14.10;7.90;;;4.20;99.90;;;;;;4991080;28;20057;-75
2021/11/26 16:20:11;;;;;;;14.38;7.53;;;4.20;99.90;;;;;;4990590;28;20385;-77
2021/11/26 16:22:40;;;;;;;14.00;7.50;;;4.20;99.90;;;;;;4990751;28;20477;-76
2021/11/26 16:25:08;;;;;;;15.55;8.73;;;4.20;99.90;;;;;;4991242;28;20082;-77
2021/11/26 16:27:41;;;;;;;14.45;8.27;;;4.20;99.90;;;;;;4990612;28;20176;-78
2021/11/26 16:30:10;;;;;;;15.60;8.35;;;4.20;99.90;;;;;;4991319;28;20054;-75
2021/11/26 16:32:42;;;;;;;16.17;8.75;;;4.20;99.90;;;;;;4989821;28;20499;-75
2021/11/26 16:35:15;;;;;;;36.90;15.85;;;4.20;99.90;;;;;;4993259;28;20054;-75
2021/11/26 16:37:43;;;;;;;24.52;11.52;;;4.20;99.90;;;;;;4990898;28;20053;-75
2021/11/26 16:40:11;;;;;;;19.00;9.95;;;4.20;99.90;;;;;;4991198;28;20133;-75
2021/11/26 16:42:41;;;;;;;17.33;9.02;;;4.20;99.90;;;;;;4990571;28;20093;-76
2021/11/26 16:45:09;;;;;;;17.33;9.32;;;4.20;99.90;;;;;;4990437;28;20361;-75
2021/11/26 16:47:37;;;;;;;18.15;9.57;;;4.20;99.90;;;;;;4990407;28;20146;-75
2021/11/26 16:50:05;;;;;;;16.00;8.70;;;4.20;99.90;;;;;;4989865;28;20049;-76
2021/11/26 16:52:32;;;;;;;16.48;8.15;;;4.20;99.90;;;;;;4990880;28;20137;-75
2021/11/26 16:55:00;;;;;;;15.82;8.52;;;4.20;99.90;;;;;;4990130;28;20142;-73
2021/11/26 16:57:27;;;;;;;16.38;9.20;;;4.20;99.90;;;;;;4989353;28;20078;-76
2021/11/26 16:59:55;;;;;;;18.02;9.50;;;4.20;99.90;;;;;;4989844;28;20500;-74
2021/11/26 17:02:22;;;;;;;18.73;9.55;;;4.20;99.90;;;;;;4989120;28;20046;-76
2021/11/26 17:04:49;;;;;;;16.95;9.63;;;4.20;99.90;;;;;;4990508;28;20129;-76
2021/11/26 17:07:16;;;;;;;18.88;9.52;;;4.20;99.90;;;;;;4990210;28;20059;-79
2021/11/26 17:09:44;;;;;;;19.08;10.05;;;4.20;99.90;;;;;;4989985;28;20057;-76
2021/11/26 17:12:12;;;;;;;16.67;9.55;;;4.20;99.90;;;;;;4990939;28;20048;-77
2021/11/26 17:14:39;;;;;;;17.58;9.20;;;4.20;99.90;;;;;;4989559;28;20046;-77
2021/11/26 17:17:06;;;;;;;18.63;9.65;;;4.20;99.90;;;;;;4989680;28;20046;-75
2021/11/26 17:19:33;;;;;;;18.67;9.80;;;4.20;99.90;;;;;;4990088;28;20053;-77
2021/11/26 17:22:00;;;;;;;18.33;9.40;;;4.20;99.90;;;;;;4989519;28;20133;-79
2021/11/26 17:24:28;;;;;;;16.42;9.30;;;4.20;99.90;;;;;;4987523;28;20133;-76
2021/11/26 17:26:55;;;;;;;16.80;9.77;;;4.20;99.90;;;;;;4987907;28;20547;-76
2021/11/26 17:29:23;;;;;;;20.15;11.10;;;4.20;99.90;;;;;;4988592;28;20427;-76
2021/11/26 17:31:51;;;;;;;21.20;11.30;;;4.20;99.90;;;;;;4988608;28;20141;-77
2021/11/26 17:34:19;;;;;;;18.20;9.77;;;4.20;99.90;;;;;;4989139;28;20109;-74
2021/11/26 17:36:46;;;;;;;17.10;9.75;;;4.20;99.90;;;;;;4981933;28;20047;-76
2021/11/26 17:39:13;;;;;;;21.70;11.10;;;4.20;99.90;;;;;;4988749;28;20052;-75
2021/11/26 17:41:40;;;;;;;19.02;10.20;;;4.20;99.90;;;;;;4988122;28;20051;-76
2021/11/26 17:44:08;;;;;;;18.75;10.45;;;4.10;99.90;;;;;;4989035;28;20050;-76
2021/11/26 17:46:38;;;;;;;18.83;10.13;;;4.10;99.90;;;;;;4988674;28;20085;-75
2021/11/26 17:49:06;;;;;;;19.23;10.38;;;4.10;99.90;;;;;;4987864;28;20085;-75
2021/11/26 17:51:33;;;;;;;20.27;10.45;;;4.10;99.90;;;;;;4988608;28;20058;-77
2021/11/26 17:54:00;;;;;;;17.95;9.88;;;4.10;99.90;;;;;;4989251;28;20057;-75
2021/11/26 17:56:28;;;;;;;18.30;10.45;;;4.10;99.90;;;;;;4987984;28;20525;-75
2021/11/26 17:58:55;;;;;;;17.45;9.52;;;4.10;99.90;;;;;;4987947;28;20069;-79
2021/11/26 18:01:22;;;;;;;19.15;10.77;;;4.10;99.90;;;;;;4986752;28;20076;-79
2021/11/26 18:03:50;;;;;;;20.98;11.00;;;4.10;99.90;;;;;;4987501;28;20145;-78
2021/11/26 18:06:22;;;;;;;20.85;10.05;;;4.10;99.90;;;;;;4987571;28;20070;-77
2021/11/26 18:08:52;;;;;;;15.45;8.65;;;4.10;99.90;;;;;;4986352;28;20047;-79
2021/11/26 18:11:28;;;;;;;14.82;8.02;;;4.10;99.90;;;;;;4988846;28;20476;-78
2021/11/26 18:13:55;;;;;;;14.07;7.72;;;4.10;99.90;;;;;;4988907;28;20047;-78
2021/11/26 18:16:22;;;;;;;14.15;7.55;;;4.10;99.90;;;;;;4987788;28;20418;-79
2021/11/26 18:18:52;;;;;;;13.15;7.10;;;4.10;99.90;;;;;;4987360;28;20047;-77
2021/11/26 18:21:20;;;;;;;13.45;7.13;;;4.20;99.90;;;;;;4986917;28;20046;-78
2021/11/26 18:23:49;;;;;;;12.55;6.53;;;4.20;99.90;;;;;;4988554;28;20455;-79
2021/11/26 18:26:17;;;;;;;11.70;6.55;;;4.20;99.90;;;;;;4988614;28;20053;-77
2021/11/26 18:28:45;;;;;;;15.15;6.20;;;4.30;99.90;;;;;;4987446;28;20104;-77
2021/11/26 18:31:13;;;;;;;9.73;5.70;;;4.30;99.90;;;;;;4988569;28;20043;-77
2021/11/26 18:33:40;;;;;;;10.13;4.88;;;4.30;99.90;;;;;;4988810;28;20133;-80
2021/11/26 18:36:09;;;;;;;11.27;6.20;;;4.30;99.90;;;;;;4988428;28;20049;-78
2021/11/26 18:38:38;;;;;;;10.38;5.22;;;4.40;99.90;;;;;;4988714;28;20105;-78
2021/11/26 18:41:12;;;;;;;9.82;5.25;;;4.30;99.90;;;;;;4987867;28;20512;-79
2021/11/26 18:43:41;;;;;;;10.32;5.22;;;4.30;99.90;;;;;;4991764;28;20087;-77
2021/11/26 18:46:08;;;;;;;11.88;5.85;;;4.40;99.90;;;;;;4992175;28;20054;-77
2021/11/26 18:48:36;;;;;;;11.23;5.60;;;4.40;99.90;;;;;;4991728;28;20129;-79
2021/11/26 18:51:04;;;;;;;12.75;6.85;;;4.40;99.90;;;;;;4992557;28;20058;-79
2021/11/26 18:53:32;;;;;;;13.38;6.78;;;4.40;99.90;;;;;;4987402;28;20045;-80
2021/11/26 18:56:00;;;;;;;13.15;6.40;;;4.40;99.90;;;;;;4989085;28;20129;-78
2021/11/26 18:58:27;;;;;;;12.13;6.15;;;4.40;99.90;;;;;;4987119;28;20488;-75